Time;durP1;ratioP1;P1;durP2;ratioP2;P2;SDS_P1;SDS_P2;PMS_P1;PMS_P2;Temp;Humidity;BMP_temperature;BMP_pressure;BME280_temperature;BME280_humidity;BME280_pressure;Samples;Min_cycle;Max_cycle;Signal;HPM_P1;HPM_P2
2023/01/22 00:02:05;;;;;;;56.55;28.17;;;;;;;;;;6184533;23;19997;-87
2023/01/22 00:04:31;;;;;;;56.22;28.88;;;;;;;;;;6149033;23;20001;-86
2023/01/22 00:06:56;;;;;;;61.22;31.98;;;;;;;;;;6169125;23;20008;-87
2023/01/22 00:09:22;;;;;;;66.53;34.13;;;;;;;;;;6161151;23;20388;-86
2023/01/22 00:11:48;;;;;;;65.38;32.83;;;;;;;;;;6184586;23;20040;-87
2023/01/22 00:14:14;;;;;;;61.42;32.55;;;;;;;;;;6187837;23;20012;-87
2023/01/22 00:16:40;;;;;;;64.22;32.58;;;;;;;;;;6188670;23;19997;-87
2023/01/22 00:19:06;;;;;;;64.43;31.90;;;;;;;;;;6161260;23;20005;-86
2023/01/22 00:21:31;;;;;;;66.43;32.15;;;;;;;;;;6190916;23;20047;-87
2023/01/22 00:23:56;;;;;;;57.65;30.50;;;;;;;;;;6202316;23;20005;-87
2023/01/22 00:26:22;;;;;;;64.50;30.88;;;;;;;;;;6189448;23;20088;-86
2023/01/22 00:28:47;;;;;;;59.50;30.67;;;;;;;;;;6187151;23;20012;-88
2023/01/22 00:31:13;;;;;;;66.00;32.33;;;;;;;;;;6185575;23;20005;-86
2023/01/22 00:33:39;;;;;;;63.97;31.35;;;;;;;;;;6185642;23;20020;-87
2023/01/22 00:36:13;;;;;;;56.10;28.58;;;;;;;;;;6185975;23;20420;-88
2023/01/22 00:38:39;;;;;;;57.55;28.98;;;;;;;;;;6187140;23;19997;-87
2023/01/22 00:41:05;;;;;;;56.30;27.67;;;;;;;;;;6186763;23;20406;-87
2023/01/22 00:43:31;;;;;;;57.75;28.38;;;;;;;;;;6172212;23;20001;-86
2023/01/22 00:45:56;;;;;;;49.58;26.77;;;;;;;;;;6191199;23;20009;-87
2023/01/22 00:48:22;;;;;;;54.38;27.73;;;;;;;;;;6187088;23;20029;-88
2023/01/22 00:50:47;;;;;;;50.92;26.48;;;;;;;;;;6159855;23;20004;-85
2023/01/22 00:53:13;;;;;;;58.05;28.60;;;;;;;;;;6186587;23;20017;-86
2023/01/22 00:55:38;;;;;;;62.47;29.40;;;;;;;;;;6184534;23;20437;-87
2023/01/22 00:58:04;;;;;;;56.83;29.77;;;;;;;;;;6159311;23;20016;-87
2023/01/22 01:00:29;;;;;;;52.53;28.85;;;;;;;;;;6183967;23;20008;-88
2023/01/22 01:05:38;;;;;;;61.20;31.80;;;;;;;;;;6186872;23;20067;-86
2023/01/22 01:08:04;;;;;;;58.80;29.48;;;;;;;;;;6159458;23;20417;-87
2023/01/22 01:10:29;;;;;;;58.65;29.30;;;;;;;;;;6184358;23;19997;-87
2023/01/22 01:12:55;;;;;;;58.17;29.98;;;;;;;;;;6185795;23;20009;-87
2023/01/22 01:15:21;;;;;;;56.40;29.98;;;;;;;;;;6185439;23;20079;-87
2023/01/22 01:17:47;;;;;;;62.67;31.02;;;;;;;;;;6184158;23;20025;-87
2023/01/22 01:20:12;;;;;;;57.65;29.55;;;;;;;;;;6185615;23;20345;-86
2023/01/22 01:22:38;;;;;;;55.60;27.52;;;;;;;;;;6198547;23;20004;-85
2023/01/22 01:25:04;;;;;;;62.47;27.73;;;;;;;;;;6186883;23;20060;-87
2023/01/22 01:27:30;;;;;;;61.65;30.40;;;;;;;;;;6158958;23;20005;-87
2023/01/22 01:29:56;;;;;;;66.47;30.35;;;;;;;;;;6134271;23;20005;-87
2023/01/22 01:32:22;;;;;;;55.17;27.05;;;;;;;;;;6183941;23;20005;-87
2023/01/22 01:34:48;;;;;;;55.80;27.45;;;;;;;;;;6185841;23;20336;-86
2023/01/22 01:37:14;;;;;;;62.33;29.38;;;;;;;;;;6185349;23;20012;-87
2023/01/22 01:39:40;;;;;;;62.42;27.40;;;;;;;;;;6183910;23;20001;-87
2023/01/22 01:42:05;;;;;;;59.05;27.65;;;;;;;;;;6146738;23;20337;-85
2023/01/22 01:44:30;;;;;;;57.17;27.30;;;;;;;;;;6163978;23;20332;-87
2023/01/22 01:47:04;;;;;;;58.00;27.05;;;;;;;;;;6184635;23;20005;-87
2023/01/22 01:49:43;;;;;;;58.22;27.88;;;;;;;;;;6185272;23;20345;-87
2023/01/22 01:52:10;;;;;;;58.55;27.95;;;;;;;;;;6164473;23;20005;-87
2023/01/22 01:54:36;;;;;;;59.80;27.83;;;;;;;;;;6183851;23;20024;-87
2023/01/22 01:57:11;;;;;;;63.55;29.52;;;;;;;;;;6162688;23;20040;-87
2023/01/22 01:59:37;;;;;;;56.47;26.98;;;;;;;;;;6164375;23;20001;-86
2023/01/22 02:02:03;;;;;;;59.17;28.10;;;;;;;;;;6173123;23;20016;-85
2023/01/22 02:04:29;;;;;;;61.45;28.13;;;;;;;;;;6205096;23;20023;-86
2023/01/22 02:06:54;;;;;;;56.97;27.42;;;;;;;;;;6191469;23;20421;-87
2023/01/22 02:09:20;;;;;;;61.88;29.13;;;;;;;;;;6184614;23;20001;-87
2023/01/22 02:11:45;;;;;;;57.85;27.90;;;;;;;;;;6192407;23;20032;-86
2023/01/22 02:14:13;;;;;;;74.60;29.75;;;;;;;;;;6184393;23;20430;-87
2023/01/22 02:16:38;;;;;;;85.90;32.25;;;;;;;;;;6160312;23;20080;-86
2023/01/22 02:19:04;;;;;;;76.82;31.58;;;;;;;;;;6186553;23;20001;-88
2023/01/22 02:21:34;;;;;;;75.75;31.13;;;;;;;;;;6174455;23;20061;-85
2023/01/22 02:24:00;;;;;;;79.40;31.92;;;;;;;;;;6200458;23;20001;-86
2023/01/22 02:26:25;;;;;;;84.95;32.40;;;;;;;;;;6170491;23;20009;-87
2023/01/22 02:28:51;;;;;;;90.35;32.67;;;;;;;;;;6169618;23;20020;-87
2023/01/22 02:31:16;;;;;;;78.35;32.08;;;;;;;;;;6195334;23;20012;-88
2023/01/22 02:33:42;;;;;;;77.82;31.02;;;;;;;;;;6197660;23;19997;-86
2023/01/22 02:36:08;;;;;;;80.65;32.75;;;;;;;;;;6185827;23;20076;-86
2023/01/22 02:38:33;;;;;;;81.07;32.50;;;;;;;;;;6186206;23;20012;-87
2023/01/22 02:40:59;;;;;;;73.28;32.15;;;;;;;;;;6197839;23;20009;-85
2023/01/22 02:43:24;;;;;;;75.68;31.73;;;;;;;;;;6189210;23;20024;-86
2023/01/22 02:45:50;;;;;;;74.55;33.20;;;;;;;;;;6207810;23;20004;-87
2023/01/22 02:48:15;;;;;;;81.82;32.53;;;;;;;;;;6184795;23;20001;-83
2023/01/22 02:50:40;;;;;;;88.45;34.17;;;;;;;;;;6207969;23;20009;-86
2023/01/22 02:53:06;;;;;;;81.63;33.95;;;;;;;;;;6210243;23;20001;-86
2023/01/22 02:55:31;;;;;;;82.55;32.97;;;;;;;;;;6210565;23;20077;-86
2023/01/22 02:57:57;;;;;;;86.43;34.10;;;;;;;;;;6211840;23;19993;-85
2023/01/22 03:00:23;;;;;;;90.45;33.28;;;;;;;;;;6211625;23;20009;-82
2023/01/22 03:02:48;;;;;;;86.30;32.38;;;;;;;;;;6209708;23;20016;-86
2023/01/22 03:05:13;;;;;;;84.60;33.58;;;;;;;;;;6199977;23;20013;-86
2023/01/22 03:07:43;;;;;;;85.38;33.17;;;;;;;;;;6192377;23;20084;-87
2023/01/22 03:10:14;;;;;;;84.65;34.50;;;;;;;;;;6184616;23;20003;-86
2023/01/22 03:23:36;;;;;;;102.28;39.70;;;;;;;;;;6184798;23;20482;-87
2023/01/22 03:26:01;;;;;;;90.18;38.78;;;;;;;;;;6184810;23;20013;-88
2023/01/22 03:28:27;;;;;;;87.30;35.97;;;;;;;;;;6182958;23;20314;-86
2023/01/22 03:30:52;;;;;;;104.38;37.00;;;;;;;;;;6184273;23;20070;-87
2023/01/22 03:33:18;;;;;;;88.30;35.65;;;;;;;;;;6184412;23;20059;-86
2023/01/22 03:35:43;;;;;;;97.35;36.05;;;;;;;;;;6157944;23;20008;-86
2023/01/22 03:38:08;;;;;;;91.05;37.00;;;;;;;;;;6184938;23;20021;-87
2023/01/22 03:40:34;;;;;;;96.95;36.80;;;;;;;;;;6199973;23;20009;-87
2023/01/22 03:42:59;;;;;;;108.55;39.00;;;;;;;;;;6183933;23;20001;-87
2023/01/22 03:45:25;;;;;;;105.20;38.33;;;;;;;;;;6187807;23;20048;-86
2023/01/22 03:47:52;;;;;;;109.63;40.63;;;;;;;;;;6185419;23;20001;-87
2023/01/22 03:50:18;;;;;;;109.13;38.25;;;;;;;;;;6191348;23;20097;-86
2023/01/22 03:52:43;;;;;;;106.53;39.78;;;;;;;;;;6184683;23;20009;-86
2023/01/22 03:55:09;;;;;;;107.75;39.75;;;;;;;;;;6182298;23;20020;-87
2023/01/22 03:57:34;;;;;;;104.53;38.75;;;;;;;;;;6187221;23;20001;-87
2023/01/22 04:00:00;;;;;;;108.07;41.38;;;;;;;;;;6206944;23;20012;-85
2023/01/22 04:02:27;;;;;;;104.72;40.38;;;;;;;;;;6195152;23;20080;-87
2023/01/22 04:04:52;;;;;;;103.68;39.63;;;;;;;;;;6198990;23;20009;-87
2023/01/22 04:07:18;;;;;;;103.90;39.60;;;;;;;;;;6189668;23;20403;-86
2023/01/22 04:09:43;;;;;;;107.78;39.90;;;;;;;;;;6200449;23;20456;-87
2023/01/22 04:12:09;;;;;;;105.28;40.45;;;;;;;;;;6196834;23;20005;-86
2023/01/22 04:14:34;;;;;;;106.00;40.35;;;;;;;;;;6193903;23;20379;-87
2023/01/22 04:17:00;;;;;;;103.45;40.00;;;;;;;;;;6187255;23;20340;-86
2023/01/22 04:19:25;;;;;;;116.00;40.38;;;;;;;;;;6202542;23;19997;-86
2023/01/22 04:21:51;;;;;;;116.47;40.10;;;;;;;;;;6187873;23;20589;-87
2023/01/22 04:24:17;;;;;;;115.78;39.60;;;;;;;;;;6184946;23;20113;-86
2023/01/22 04:26:42;;;;;;;108.22;38.58;;;;;;;;;;6185921;23;20013;-85
2023/01/22 04:29:08;;;;;;;106.63;36.58;;;;;;;;;;6186029;23;20055;-86
2023/01/22 04:31:33;;;;;;;100.10;35.08;;;;;;;;;;6183946;23;20009;-87
2023/01/22 04:33:59;;;;;;;100.32;34.17;;;;;;;;;;6186145;23;20005;-88
2023/01/22 04:36:24;;;;;;;93.10;34.42;;;;;;;;;;6186486;23;20423;-87
2023/01/22 04:38:50;;;;;;;97.57;33.63;;;;;;;;;;6201581;23;20000;-87
2023/01/22 04:41:15;;;;;;;100.97;33.13;;;;;;;;;;6184297;23;20009;-87
2023/01/22 04:43:41;;;;;;;97.60;34.35;;;;;;;;;;6186118;23;20001;-87
2023/01/22 04:46:06;;;;;;;114.60;35.65;;;;;;;;;;6185251;23;20040;-87
2023/01/22 04:48:32;;;;;;;101.60;35.60;;;;;;;;;;6185351;23;20008;-86
2023/01/22 04:50:57;;;;;;;97.90;34.40;;;;;;;;;;6186325;23;19993;-85
2023/01/22 04:53:22;;;;;;;97.80;35.05;;;;;;;;;;6161081;23;20009;-86
2023/01/22 04:55:49;;;;;;;110.20;38.58;;;;;;;;;;6183824;23;20348;-87
2023/01/22 04:58:14;;;;;;;104.32;37.47;;;;;;;;;;6194884;23;20064;-87
2023/01/22 05:00:40;;;;;;;108.72;38.65;;;;;;;;;;6186453;23;20001;-87
2023/01/22 05:03:05;;;;;;;113.22;38.78;;;;;;;;;;6185733;23;20001;-88
2023/01/22 05:05:31;;;;;;;105.97;38.90;;;;;;;;;;6183827;23;20012;-87
2023/01/22 05:07:56;;;;;;;118.60;41.50;;;;;;;;;;6183773;23;20009;-87
2023/01/22 05:10:22;;;;;;;110.43;39.30;;;;;;;;;;6185343;23;20001;-86
2023/01/22 05:12:48;;;;;;;119.40;39.60;;;;;;;;;;6184924;23;20128;-87
2023/01/22 05:15:13;;;;;;;116.43;40.03;;;;;;;;;;6159593;23;19997;-86
2023/01/22 05:17:38;;;;;;;105.78;40.05;;;;;;;;;;6198815;23;20048;-85
2023/01/22 05:20:04;;;;;;;113.18;41.25;;;;;;;;;;6161848;23;20005;-86
2023/01/22 05:22:30;;;;;;;123.28;42.33;;;;;;;;;;6186098;23;20005;-87
2023/01/22 05:24:55;;;;;;;115.00;42.75;;;;;;;;;;6184847;23;20001;-86
2023/01/22 05:27:21;;;;;;;116.60;41.28;;;;;;;;;;6189355;23;20067;-87
2023/01/22 05:29:46;;;;;;;113.38;41.78;;;;;;;;;;6199513;23;20005;-86
2023/01/22 05:32:12;;;;;;;116.93;40.90;;;;;;;;;;6199102;23;20087;-85
2023/01/22 05:34:38;;;;;;;109.82;42.20;;;;;;;;;;6186611;23;20004;-86
2023/01/22 05:37:03;;;;;;;107.97;42.95;;;;;;;;;;6197765;23;20436;-87
2023/01/22 05:39:28;;;;;;;111.55;41.10;;;;;;;;;;6191973;23;20009;-87
2023/01/22 05:41:54;;;;;;;113.40;45.97;;;;;;;;;;6191530;23;19997;-87
2023/01/22 05:44:19;;;;;;;111.53;43.53;;;;;;;;;;6186401;23;20011;-87
2023/01/22 05:46:45;;;;;;;108.60;40.75;;;;;;;;;;6185443;23;20515;-87
2023/01/22 05:49:10;;;;;;;101.47;38.85;;;;;;;;;;6185128;23;20001;-87
2023/01/22 05:51:36;;;;;;;87.72;37.38;;;;;;;;;;6185749;23;20001;-87
2023/01/22 05:54:01;;;;;;;109.68;45.45;;;;;;;;;;6185409;23;20013;-88
2023/01/22 05:56:27;;;;;;;123.40;47.30;;;;;;;;;;6192735;23;20001;-85
2023/01/22 05:58:52;;;;;;;112.80;46.40;;;;;;;;;;6196389;23;20009;-86
2023/01/22 06:01:17;;;;;;;102.80;42.30;;;;;;;;;;6158450;23;20100;-87
2023/01/22 06:03:43;;;;;;;107.10;44.25;;;;;;;;;;6184709;23;20005;-86
2023/01/22 06:06:12;;;;;;;105.00;44.00;;;;;;;;;;6185347;23;20332;-87
2023/01/22 06:08:57;;;;;;;100.60;42.28;;;;;;;;;;6184672;23;20011;-87
2023/01/22 06:11:22;;;;;;;98.82;39.97;;;;;;;;;;6185556;23;20300;-85
2023/01/22 06:13:48;;;;;;;92.85;40.80;;;;;;;;;;6185226;23;20032;-86
2023/01/22 06:16:13;;;;;;;98.20;42.08;;;;;;;;;;6197160;23;20016;-86
2023/01/22 06:18:39;;;;;;;102.13;43.08;;;;;;;;;;6185775;23;20077;-87
2023/01/22 06:21:05;;;;;;;104.63;44.35;;;;;;;;;;6184509;23;20428;-87
2023/01/22 06:23:30;;;;;;;101.88;45.08;;;;;;;;;;6184763;23;20005;-87
2023/01/22 06:25:57;;;;;;;109.03;47.05;;;;;;;;;;6185097;23;20609;-86
2023/01/22 06:28:23;;;;;;;105.80;44.55;;;;;;;;;;6184962;23;20005;-86
2023/01/22 06:30:48;;;;;;;112.35;48.40;;;;;;;;;;6185248;23;20001;-87
2023/01/22 06:33:14;;;;;;;105.97;48.55;;;;;;;;;;6189652;23;20052;-87
2023/01/22 06:35:39;;;;;;;114.13;48.75;;;;;;;;;;6160136;23;20033;-87
2023/01/22 06:38:05;;;;;;;121.40;48.78;;;;;;;;;;6185893;23;20132;-87
2023/01/22 06:40:30;;;;;;;107.80;48.13;;;;;;;;;;6183683;23;19997;-87
2023/01/22 06:42:56;;;;;;;118.22;49.22;;;;;;;;;;6185023;23;20004;-87
2023/01/22 06:45:23;;;;;;;111.68;49.42;;;;;;;;;;6182962;23;20004;-85
2023/01/22 06:47:48;;;;;;;99.93;47.78;;;;;;;;;;6188991;23;20075;-86
2023/01/22 06:50:14;;;;;;;102.30;46.65;;;;;;;;;;6192547;23;20476;-87
2023/01/22 06:52:39;;;;;;;106.07;48.03;;;;;;;;;;6160396;23;20009;-87
2023/01/22 06:55:05;;;;;;;100.28;47.70;;;;;;;;;;6190722;23;20337;-86
2023/01/22 06:57:30;;;;;;;105.60;46.25;;;;;;;;;;6187958;23;20009;-87
2023/01/22 06:59:56;;;;;;;101.97;48.08;;;;;;;;;;6158231;23;20000;-88
2023/01/22 07:02:21;;;;;;;101.85;44.65;;;;;;;;;;6158348;23;20032;-88
2023/01/22 07:04:47;;;;;;;103.65;46.22;;;;;;;;;;6184944;23;20001;-86
2023/01/22 07:07:12;;;;;;;95.03;45.33;;;;;;;;;;6186906;23;20001;-86
2023/01/22 07:09:38;;;;;;;102.18;45.90;;;;;;;;;;6197616;23;20015;-87
2023/01/22 07:12:05;;;;;;;112.53;49.42;;;;;;;;;;6202237;23;20088;-87
2023/01/22 07:14:30;;;;;;;101.88;47.92;;;;;;;;;;6204955;23;20008;-84
2023/01/22 07:16:56;;;;;;;96.00;46.22;;;;;;;;;;6181096;23;20016;-87
2023/01/22 07:19:21;;;;;;;96.68;44.38;;;;;;;;;;6205376;23;20020;-87
2023/01/22 07:21:47;;;;;;;102.47;45.92;;;;;;;;;;6208350;23;20028;-84
2023/01/22 07:24:12;;;;;;;95.45;44.30;;;;;;;;;;6203659;23;20008;-86
2023/01/22 07:26:38;;;;;;;93.68;41.33;;;;;;;;;;6185405;23;20380;-87
2023/01/22 07:29:04;;;;;;;95.95;42.00;;;;;;;;;;6184298;23;20091;-88
2023/01/22 07:31:29;;;;;;;107.00;43.47;;;;;;;;;;6189630;23;20009;-87
2023/01/22 07:33:55;;;;;;;111.82;44.47;;;;;;;;;;6191381;23;20005;-86
2023/01/22 07:36:20;;;;;;;116.20;45.25;;;;;;;;;;6194213;23;20432;-88
2023/01/22 07:38:46;;;;;;;111.95;45.33;;;;;;;;;;6182387;23;20633;-88
2023/01/22 07:41:11;;;;;;;101.15;44.00;;;;;;;;;;6183104;23;20011;-88
2023/01/22 07:43:36;;;;;;;93.88;41.33;;;;;;;;;;6184484;23;20045;-86
2023/01/22 07:46:02;;;;;;;102.78;40.15;;;;;;;;;;6182726;23;20013;-87
2023/01/22 07:48:28;;;;;;;88.43;40.33;;;;;;;;;;6184135;23;20031;-88
2023/01/22 07:50:56;;;;;;;85.05;39.33;;;;;;;;;;6158348;23;20069;-87
2023/01/22 07:53:22;;;;;;;95.03;41.22;;;;;;;;;;6166356;23;20060;-86
2023/01/22 07:55:47;;;;;;;90.45;42.15;;;;;;;;;;6191285;23;20031;-87
2023/01/22 07:58:13;;;;;;;97.40;42.95;;;;;;;;;;6184455;23;20293;-88
2023/01/22 08:00:38;;;;;;;79.40;37.97;;;;;;;;;;6184381;23;20009;-87
2023/01/22 08:03:04;;;;;;;75.60;35.50;;;;;;;;;;6184575;23;20005;-88
2023/01/22 08:05:29;;;;;;;74.63;33.92;;;;;;;;;;6183096;23;20013;-88
2023/01/22 08:07:55;;;;;;;77.32;37.33;;;;;;;;;;6184344;23;20421;-88
2023/01/22 08:10:20;;;;;;;73.72;35.13;;;;;;;;;;6184674;23;20009;-88
2023/01/22 08:12:46;;;;;;;64.03;31.88;;;;;;;;;;6189745;23;19997;-87
2023/01/22 08:15:11;;;;;;;65.32;30.42;;;;;;;;;;6192726;23;20009;-87
2023/01/22 08:17:37;;;;;;;59.35;29.45;;;;;;;;;;6184368;23;20008;-87
2023/01/22 08:20:03;;;;;;;64.40;30.83;;;;;;;;;;6184271;23;20008;-87
2023/01/22 08:22:29;;;;;;;62.20;29.50;;;;;;;;;;6184016;23;20433;-88
2023/01/22 08:24:54;;;;;;;65.38;30.45;;;;;;;;;;6187548;23;20032;-86
2023/01/22 08:27:20;;;;;;;64.30;31.35;;;;;;;;;;6184467;23;20055;-87
2023/01/22 08:29:46;;;;;;;60.47;27.50;;;;;;;;;;6158548;23;20011;-87
2023/01/22 08:32:12;;;;;;;55.50;25.98;;;;;;;;;;6190307;23;20445;-85
2023/01/22 08:34:37;;;;;;;54.38;25.13;;;;;;;;;;6194387;23;20012;-87
2023/01/22 08:37:02;;;;;;;52.60;24.67;;;;;;;;;;6183297;23;20034;-86
2023/01/22 08:39:28;;;;;;;58.40;26.10;;;;;;;;;;6187361;23;20428;-86
2023/01/22 08:41:56;;;;;;;52.13;23.63;;;;;;;;;;6182536;23;20508;-87
2023/01/22 08:44:22;;;;;;;56.10;25.90;;;;;;;;;;6183846;23;20005;-86
2023/01/22 08:46:48;;;;;;;53.75;25.73;;;;;;;;;;6183916;23;20005;-87
2023/01/22 08:49:13;;;;;;;64.55;30.42;;;;;;;;;;6184434;23;20007;-86
2023/01/22 08:51:39;;;;;;;61.45;27.02;;;;;;;;;;6164698;23;20009;-85
2023/01/22 08:54:04;;;;;;;48.90;22.50;;;;;;;;;;6195097;23;20092;-87
2023/01/22 08:56:31;;;;;;;52.35;23.13;;;;;;;;;;6186276;23;20013;-87
2023/01/22 08:58:59;;;;;;;52.15;24.10;;;;;;;;;;6185736;23;20016;-86
2023/01/22 09:01:24;;;;;;;51.15;24.95;;;;;;;;;;6185023;23;20012;-87
2023/01/22 09:03:50;;;;;;;59.53;26.55;;;;;;;;;;6186012;23;19997;-87
2023/01/22 09:06:15;;;;;;;61.95;30.60;;;;;;;;;;6184806;23;20012;-87
2023/01/22 09:08:41;;;;;;;55.67;24.42;;;;;;;;;;6159592;23;20012;-87
2023/01/22 09:11:06;;;;;;;53.25;24.80;;;;;;;;;;6188936;23;20005;-88
2023/01/22 09:13:32;;;;;;;53.65;24.02;;;;;;;;;;6197949;23;20005;-86
2023/01/22 09:15:57;;;;;;;58.97;25.88;;;;;;;;;;6185220;23;20005;-86
2023/01/22 09:18:23;;;;;;;69.18;29.25;;;;;;;;;;6186050;23;20005;-87
2023/01/22 09:20:48;;;;;;;68.10;28.55;;;;;;;;;;6186068;23;20385;-87
2023/01/22 09:23:14;;;;;;;61.10;26.80;;;;;;;;;;6196956;23;20067;-86
2023/01/22 09:25:39;;;;;;;62.53;26.73;;;;;;;;;;6186340;23;20012;-87
2023/01/22 09:28:07;;;;;;;64.60;27.25;;;;;;;;;;6185842;23;20009;-87
2023/01/22 09:30:33;;;;;;;61.40;26.80;;;;;;;;;;6188375;23;20048;-88
2023/01/22 09:32:58;;;;;;;60.75;27.88;;;;;;;;;;6197020;23;20356;-88
2023/01/22 09:35:24;;;;;;;64.78;26.23;;;;;;;;;;6186566;23;20005;-87
2023/01/22 09:37:49;;;;;;;50.15;23.02;;;;;;;;;;6185759;23;20067;-88
2023/01/22 09:40:42;;;;;;;52.60;22.73;;;;;;;;;;6186325;23;20033;-88
2023/01/22 09:43:24;;;;;;;53.50;23.77;;;;;;;;;;6180512;23;20036;-86
2023/01/22 09:45:50;;;;;;;51.38;22.88;;;;;;;;;;6172908;23;20372;-87
2023/01/22 09:48:16;;;;;;;55.45;23.60;;;;;;;;;;6187732;23;20016;-88
2023/01/22 09:50:41;;;;;;;61.10;25.70;;;;;;;;;;6196176;23;20001;-85
2023/01/22 09:53:11;;;;;;;57.10;24.83;;;;;;;;;;6191107;23;20006;-86
2023/01/22 09:55:47;;;;;;;54.15;25.48;;;;;;;;;;6158653;23;20347;-87
2023/01/22 09:58:14;;;;;;;53.97;23.48;;;;;;;;;;6184487;23;20424;-87
2023/01/22 10:00:52;;;;;;;58.00;24.42;;;;;;;;;;6183908;23;20003;-91
2023/01/22 10:03:38;;;;;;;56.92;25.08;;;;;;;;;;6188126;23;20009;-87
2023/01/22 10:06:13;;;;;;;53.83;24.98;;;;;;;;;;6184503;23;20001;-88
2023/01/22 10:09:04;;;;;;;62.00;25.10;;;;;;;;;;6185057;23;20005;-89
2023/01/22 10:11:29;;;;;;;53.75;24.95;;;;;;;;;;6199640;23;20001;-88
2023/01/22 10:13:56;;;;;;;60.70;28.00;;;;;;;;;;6183555;23;20059;-88
2023/01/22 10:16:22;;;;;;;65.75;29.30;;;;;;;;;;6184951;23;20455;-88
2023/01/22 10:18:56;;;;;;;55.75;25.52;;;;;;;;;;6184225;23;20032;-88
2023/01/22 10:21:30;;;;;;;53.88;24.38;;;;;;;;;;6185548;23;19997;-87
2023/01/22 10:23:56;;;;;;;65.53;28.13;;;;;;;;;;6185370;23;20321;-89
2023/01/22 10:26:35;;;;;;;63.10;28.85;;;;;;;;;;6185242;23;20015;-88
2023/01/22 10:29:23;;;;;;;70.15;30.80;;;;;;;;;;6187770;23;20087;-87
2023/01/22 10:31:54;;;;;;;70.15;29.25;;;;;;;;;;6194685;23;20012;-89
2023/01/22 10:34:29;;;;;;;64.38;30.27;;;;;;;;;;6185650;23;19999;-88
2023/01/22 10:36:54;;;;;;;64.60;28.70;;;;;;;;;;6164731;23;20348;-87
2023/01/22 10:39:20;;;;;;;69.25;29.73;;;;;;;;;;6168083;23;19997;-87
2023/01/22 10:41:46;;;;;;;72.43;29.75;;;;;;;;;;6201008;23;20011;-86
2023/01/22 10:44:14;;;;;;;69.05;30.90;;;;;;;;;;6201531;23;20344;-85
2023/01/22 10:46:40;;;;;;;70.18;31.15;;;;;;;;;;6188865;23;20428;-87
2023/01/22 10:49:07;;;;;;;116.78;47.65;;;;;;;;;;6203365;23;20001;-86
2023/01/22 10:51:37;;;;;;;102.53;44.65;;;;;;;;;;6193606;23;20029;-87
2023/01/22 10:54:03;;;;;;;77.13;33.67;;;;;;;;;;6185941;23;20001;-87
2023/01/22 10:56:32;;;;;;;74.18;33.30;;;;;;;;;;6181508;23;20041;-87
2023/01/22 10:58:58;;;;;;;68.22;31.00;;;;;;;;;;6185317;23;20137;-87
2023/01/22 11:01:36;;;;;;;66.47;29.58;;;;;;;;;;6184559;23;20005;-87
2023/01/22 11:04:23;;;;;;;63.05;28.85;;;;;;;;;;6161272;23;20007;-87
2023/01/22 11:07:35;;;;;;;64.32;28.38;;;;;;;;;;6160120;23;20076;-88
2023/01/22 11:10:19;;;;;;;64.45;28.77;;;;;;;;;;6195933;23;20032;-88
2023/01/22 11:12:55;;;;;;;63.55;27.98;;;;;;;;;;6163306;23;20005;-88
2023/01/22 11:15:23;;;;;;;63.05;27.20;;;;;;;;;;6186795;23;20417;-87
2023/01/22 11:18:01;;;;;;;58.22;24.13;;;;;;;;;;6185452;23;20016;-87
2023/01/22 11:20:32;;;;;;;60.50;24.73;;;;;;;;;;6158349;23;20001;-88
2023/01/22 11:23:09;;;;;;;55.88;24.60;;;;;;;;;;6158143;23;20453;-86
2023/01/22 11:26:23;;;;;;;52.50;22.80;;;;;;;;;;6184303;23;20033;-88
2023/01/22 11:29:04;;;;;;;51.80;22.92;;;;;;;;;;6185150;23;20018;-87
2023/01/22 11:31:38;;;;;;;51.83;23.10;;;;;;;;;;6186032;23;20005;-88
2023/01/22 11:34:18;;;;;;;48.95;22.33;;;;;;;;;;6182832;23;20009;-87
2023/01/22 11:36:59;;;;;;;;;;;;;;;;;;6185320;23;20031;-89
2023/01/22 11:39:42;;;;;;;55.95;22.70;;;;;;;;;;6161874;23;19986;-88
2023/01/22 11:42:36;;;;;;;56.97;25.00;;;;;;;;;;6184397;23;20005;-89
2023/01/22 11:45:29;;;;;;;65.82;25.35;;;;;;;;;;6148196;23;20013;-87
2023/01/22 11:47:54;;;;;;;57.50;23.85;;;;;;;;;;6194939;23;20057;-88
2023/01/22 11:50:48;;;;;;;54.17;24.65;;;;;;;;;;6198885;23;20069;-87
2023/01/22 11:53:35;;;;;;;52.72;23.05;;;;;;;;;;6162944;23;20024;-88
2023/01/22 11:56:11;;;;;;;54.60;22.35;;;;;;;;;;6209395;23;19989;-86
2023/01/22 11:58:55;;;;;;;48.10;22.63;;;;;;;;;;6185330;23;20052;-84
2023/01/22 12:01:49;;;;;;;54.05;23.75;;;;;;;;;;6211819;23;20009;-85
2023/01/22 12:04:46;;;;;;;57.33;24.80;;;;;;;;;;6212357;23;20020;-86
2023/01/22 12:07:14;;;;;;;50.75;24.00;;;;;;;;;;6212196;23;19993;-82
2023/01/22 12:09:48;;;;;;;49.72;22.80;;;;;;;;;;6203898;23;20095;-88
2023/01/22 12:12:24;;;;;;;55.10;25.10;;;;;;;;;;6204178;23;20008;-88
2023/01/22 12:14:50;;;;;;;57.47;25.98;;;;;;;;;;6196878;23;20005;-87
2023/01/22 12:17:27;;;;;;;53.63;24.92;;;;;;;;;;6190930;23;20001;-88
2023/01/22 12:20:12;;;;;;;55.53;25.70;;;;;;;;;;6204477;23;20013;-86
2023/01/22 12:22:45;;;;;;;58.67;25.50;;;;;;;;;;6174608;23;19997;-87
2023/01/22 12:25:33;;;;;;;57.35;26.08;;;;;;;;;;6205397;23;20019;-88
2023/01/22 12:28:17;;;;;;;57.97;25.00;;;;;;;;;;6187701;23;20021;-87
2023/01/22 12:31:07;;;;;;;51.55;20.63;;;;;;;;;;6185938;23;20036;-86
2023/01/22 12:33:37;;;;;;;55.90;21.98;;;;;;;;;;6187476;23;20009;-86
2023/01/22 12:36:04;;;;;;;56.00;22.10;;;;;;;;;;6185799;23;20016;-87
2023/01/22 12:38:46;;;;;;;57.60;23.90;;;;;;;;;;6161625;23;20059;-87
2023/01/22 12:41:46;;;;;;;55.60;22.65;;;;;;;;;;6186510;23;20032;-86
2023/01/22 12:44:37;;;;;;;58.95;24.33;;;;;;;;;;6197400;23;19995;-86
2023/01/22 12:47:26;;;;;;;57.42;24.60;;;;;;;;;;6188043;23;20024;-88
2023/01/22 12:49:51;;;;;;;59.17;25.42;;;;;;;;;;6185264;23;20028;-88
2023/01/22 12:52:30;;;;;;;58.75;24.45;;;;;;;;;;6185864;23;20428;-87
2023/01/22 12:54:56;;;;;;;63.50;27.33;;;;;;;;;;6186951;23;20009;-88
2023/01/22 12:57:24;;;;;;;81.45;33.45;;;;;;;;;;6204267;23;20006;-85
2023/01/22 12:59:53;;;;;;;86.07;31.52;;;;;;;;;;6210267;23;20017;-88
2023/01/22 13:02:25;;;;;;;77.47;32.80;;;;;;;;;;6186415;23;20001;-88
2023/01/22 13:04:51;;;;;;;74.22;30.35;;;;;;;;;;6202793;23;20008;-85
2023/01/22 13:07:30;;;;;;;78.40;32.35;;;;;;;;;;6197597;23;20015;-87
2023/01/22 13:10:19;;;;;;;60.67;26.40;;;;;;;;;;6187738;23;20076;-88
2023/01/22 13:12:48;;;;;;;60.20;26.35;;;;;;;;;;6194646;23;20024;-88
2023/01/22 13:15:18;;;;;;;63.05;26.20;;;;;;;;;;6194555;23;20016;-87
2023/01/22 13:17:46;;;;;;;70.10;28.15;;;;;;;;;;6195698;23;20393;-87
2023/01/22 13:20:15;;;;;;;70.05;29.27;;;;;;;;;;6193406;23;20016;-88
2023/01/22 13:22:41;;;;;;;73.55;29.92;;;;;;;;;;6188845;23;20019;-88
2023/01/22 13:25:21;;;;;;;67.82;29.63;;;;;;;;;;6199664;23;20451;-87
2023/01/22 13:27:47;;;;;;;73.63;31.98;;;;;;;;;;6187054;23;20092;-87
2023/01/22 13:30:13;;;;;;;70.93;32.40;;;;;;;;;;6185464;23;20083;-86
2023/01/22 13:32:38;;;;;;;77.30;33.35;;;;;;;;;;6186760;23;20011;-88
2023/01/22 13:35:05;;;;;;;90.32;36.65;;;;;;;;;;6186834;23;20008;-88
2023/01/22 13:37:34;;;;;;;87.97;37.17;;;;;;;;;;6187060;23;19997;-88
2023/01/22 13:40:21;;;;;;;84.82;37.03;;;;;;;;;;6186982;23;20345;-88
2023/01/22 13:42:47;;;;;;;62.70;28.52;;;;;;;;;;6187681;23;20467;-87
2023/01/22 13:45:29;;;;;;;70.65;31.38;;;;;;;;;;6163396;23;20048;-87
2023/01/22 13:47:57;;;;;;;73.35;32.22;;;;;;;;;;6184401;23;20070;-88
2023/01/22 13:50:25;;;;;;;83.85;32.65;;;;;;;;;;6186133;23;19997;-86
2023/01/22 13:52:51;;;;;;;76.85;33.63;;;;;;;;;;6186601;23;20013;-87
2023/01/22 13:55:18;;;;;;;73.75;32.05;;;;;;;;;;6185580;23;20087;-88
2023/01/22 13:57:52;;;;;;;79.15;33.03;;;;;;;;;;6161044;23;20012;-88
2023/01/22 14:00:29;;;;;;;65.75;29.30;;;;;;;;;;6185824;23;19997;-87
2023/01/22 14:02:55;;;;;;;61.15;26.23;;;;;;;;;;6193763;23;20031;-86
2023/01/22 14:05:29;;;;;;;71.68;30.08;;;;;;;;;;6186128;23;20407;-88
2023/01/22 14:08:08;;;;;;;67.57;29.35;;;;;;;;;;6185260;23;20041;-88
2023/01/22 14:10:34;;;;;;;75.10;30.58;;;;;;;;;;6185517;23;20344;-88
2023/01/22 14:13:03;;;;;;;75.85;30.98;;;;;;;;;;6186881;23;20035;-88
2023/01/22 14:15:29;;;;;;;79.97;33.40;;;;;;;;;;6163343;23;20009;-87
2023/01/22 14:18:15;;;;;;;84.68;37.80;;;;;;;;;;6186524;23;20005;-88
2023/01/22 14:20:42;;;;;;;84.03;37.80;;;;;;;;;;6184321;23;20443;-88
2023/01/22 14:23:08;;;;;;;96.20;40.30;;;;;;;;;;6174058;23;20016;-87
2023/01/22 14:25:37;;;;;;;98.57;40.05;;;;;;;;;;6190324;23;20005;-88
2023/01/22 14:28:03;;;;;;;103.38;41.80;;;;;;;;;;6159837;23;20060;-86
2023/01/22 14:30:28;;;;;;;97.70;44.33;;;;;;;;;;6186232;23;20009;-88
2023/01/22 14:32:53;;;;;;;97.70;42.53;;;;;;;;;;6186332;23;20002;-87
2023/01/22 14:35:21;;;;;;;100.68;40.88;;;;;;;;;;6188160;23;20341;-88
2023/01/22 14:37:46;;;;;;;111.60;43.75;;;;;;;;;;6189244;23;20372;-86